Time;durP1;ratioP1;P1;durP2;ratioP2;P2;SDS_P1;SDS_P2;PMS_P1;PMS_P2;Temp;Humidity;BMP_temperature;BMP_pressure;BME280_temperature;BME280_humidity;BME280_pressure;Samples;Min_cycle;Max_cycle;Signal;HPM_P1;HPM_P2
2022/11/07 00:00:27;;;;;;;1.57;1.13;;;11.40;98.20;;;;;;4997183;28;20560;-76
2022/11/07 00:02:54;;;;;;;1.53;1.10;;;11.30;98.20;;;;;;4981306;28;20972;-76
2022/11/07 00:05:21;;;;;;;1.53;1.10;;;11.40;98.20;;;;;;5006755;28;20459;-77
2022/11/07 00:07:50;;;;;;;1.60;1.10;;;11.40;98.20;;;;;;4987954;28;20534;-76
2022/11/07 00:10:17;;;;;;;1.57;1.00;;;11.30;98.20;;;;;;5004761;28;20480;-76
2022/11/07 00:12:44;;;;;;;1.60;1.10;;;11.30;98.20;;;;;;4982580;28;20500;-77
2022/11/07 00:15:11;;;;;;;1.57;1.07;;;11.30;98.20;;;;;;4990459;28;20496;-76
2022/11/07 00:17:39;;;;;;;1.50;1.10;;;11.20;98.20;;;;;;4994509;28;20488;-76
2022/11/07 00:20:07;;;;;;;1.57;1.10;;;11.20;98.20;;;;;;4992083;28;20519;-76
2022/11/07 00:22:34;;;;;;;1.57;1.10;;;11.10;98.20;;;;;;4993058;28;20483;-77
2022/11/07 00:25:02;;;;;;;1.60;1.10;;;11.10;98.20;;;;;;4992337;28;20467;-77
2022/11/07 00:27:31;;;;;;;1.60;1.20;;;11.00;98.20;;;;;;4979406;28;21171;-76
2022/11/07 00:29:59;;;;;;;1.57;1.10;;;11.00;98.20;;;;;;4989251;28;20492;-77
2022/11/07 00:32:26;;;;;;;1.57;1.17;;;10.90;98.20;;;;;;4991642;28;21047;-77
2022/11/07 00:34:52;;;;;;;1.50;1.10;;;10.90;98.20;;;;;;4992543;28;20579;-76
2022/11/07 00:37:19;;;;;;;1.57;1.10;;;10.90;98.20;;;;;;4978143;28;20485;-76
2022/11/07 00:39:46;;;;;;;1.53;1.17;;;10.90;98.20;;;;;;4974581;28;20493;-76
2022/11/07 00:42:14;;;;;;;1.57;1.10;;;10.90;98.20;;;;;;4982227;28;20822;-76
2022/11/07 00:44:41;;;;;;;1.60;1.10;;;10.90;98.20;;;;;;4988269;28;20488;-76
2022/11/07 00:47:08;;;;;;;1.50;1.10;;;10.90;98.20;;;;;;4972716;28;20504;-76
2022/11/07 00:49:35;;;;;;;1.50;1.10;;;10.90;98.20;;;;;;4966130;28;21176;-76
2022/11/07 00:52:03;;;;;;;1.53;1.10;;;10.80;98.20;;;;;;4964815;28;20484;-77
2022/11/07 00:54:30;;;;;;;1.50;1.10;;;10.80;98.20;;;;;;4979191;28;20576;-76
2022/11/07 00:56:56;;;;;;;1.53;1.10;;;10.80;98.20;;;;;;4973368;28;20508;-77
2022/11/07 00:59:26;;;;;;;1.57;1.10;;;10.80;98.20;;;;;;4982698;28;20876;-77
2022/11/07 01:01:53;;;;;;;1.60;1.10;;;10.70;98.20;;;;;;4973298;28;20553;-76
2022/11/07 01:07:05;;;;;;;1.60;1.20;;;10.70;98.20;;;;;;4983689;28;20508;-76
2022/11/07 01:09:32;;;;;;;1.53;1.10;;;10.70;98.20;;;;;;4986967;28;20509;-77
2022/11/07 01:12:00;;;;;;;1.60;1.10;;;10.70;98.20;;;;;;4983460;28;21031;-77
2022/11/07 01:14:28;;;;;;;1.53;1.10;;;10.80;98.20;;;;;;4987759;28;20490;-77
2022/11/07 01:16:56;;;;;;;1.57;1.10;;;10.80;98.20;;;;;;4981104;28;20540;-77
2022/11/07 01:19:23;;;;;;;1.50;1.10;;;10.80;98.20;;;;;;4991196;28;20485;-78
2022/11/07 01:21:50;;;;;;;1.53;1.10;;;10.90;98.20;;;;;;4992368;28;20488;-78
2022/11/07 01:24:19;;;;;;;1.53;1.03;;;10.90;98.20;;;;;;5004471;28;20577;-78
2022/11/07 01:26:47;;;;;;;1.57;1.10;;;10.90;98.20;;;;;;4988731;28;20572;-78
2022/11/07 01:29:14;;;;;;;1.53;1.10;;;10.90;98.20;;;;;;4983878;28;20485;-78
2022/11/07 01:31:44;;;;;;;1.57;1.10;;;10.90;98.20;;;;;;4975293;28;20494;-78
2022/11/07 01:34:11;;;;;;;1.57;1.17;;;10.80;98.20;;;;;;4990623;28;20481;-78
2022/11/07 01:36:38;;;;;;;1.53;1.10;;;10.80;98.20;;;;;;4978659;28;20499;-78
2022/11/07 01:39:06;;;;;;;1.60;1.30;;;10.80;98.20;;;;;;5003673;28;20546;-78
2022/11/07 01:41:34;;;;;;;1.60;1.10;;;10.70;98.20;;;;;;4985594;28;20484;-78
2022/11/07 01:44:04;;;;;;;1.57;1.10;;;10.70;98.20;;;;;;4990945;28;20453;-78
2022/11/07 01:46:33;;;;;;;1.60;1.10;;;10.70;98.20;;;;;;4991076;28;20496;-78
2022/11/07 01:49:09;;;;;;;1.60;1.10;;;10.70;98.20;;;;;;5002349;28;20966;-78
2022/11/07 01:51:40;;;;;;;1.57;1.10;;;10.70;98.20;;;;;;4981298;28;20916;-78
2022/11/07 01:54:09;;;;;;;1.53;1.10;;;10.70;98.20;;;;;;5003455;28;20480;-78
2022/11/07 01:56:39;;;;;;;1.57;1.10;;;10.60;98.20;;;;;;4984652;28;20496;-78
2022/11/07 01:59:08;;;;;;;1.53;1.10;;;10.60;98.20;;;;;;4991920;28;20732;-78
2022/11/07 02:01:34;;;;;;;1.60;1.20;;;10.60;98.20;;;;;;4988381;28;20986;-78
2022/11/07 02:04:04;;;;;;;1.60;1.20;;;10.60;98.20;;;;;;4998479;28;20457;-78
2022/11/07 02:06:39;;;;;;;1.57;1.07;;;10.60;98.20;;;;;;4989410;28;20823;-77
2022/11/07 02:09:06;;;;;;;1.50;1.10;;;10.60;98.20;;;;;;4991211;28;20504;-77
2022/11/07 02:11:33;;;;;;;1.60;1.20;;;10.60;98.20;;;;;;4982140;28;20492;-78
2022/11/07 02:14:00;;;;;;;1.60;1.20;;;10.60;98.20;;;;;;4991113;28;20495;-77
2022/11/07 02:16:31;;;;;;;1.57;1.20;;;10.60;98.20;;;;;;4982568;28;20485;-78
2022/11/07 02:18:59;;;;;;;1.57;1.20;;;10.60;98.20;;;;;;4991811;28;21142;-77
2022/11/07 02:21:38;;;;;;;1.53;1.10;;;10.50;98.20;;;;;;4985850;28;20495;-78
2022/11/07 02:24:14;;;;;;;1.57;1.10;;;10.50;98.20;;;;;;4992429;28;20500;-77
2022/11/07 02:26:42;;;;;;;1.53;1.10;;;10.50;98.20;;;;;;4975401;28;21039;-77
2022/11/07 02:29:11;;;;;;;1.57;1.10;;;10.50;98.20;;;;;;4996375;28;20490;-77
2022/11/07 02:31:38;;;;;;;1.60;1.13;;;10.50;98.20;;;;;;4975718;28;20511;-77
2022/11/07 02:34:05;;;;;;;1.57;1.10;;;10.50;98.20;;;;;;4993149;28;20868;-78
2022/11/07 02:36:33;;;;;;;1.60;1.10;;;10.40;98.20;;;;;;4972112;28;20488;-77
2022/11/07 02:39:00;;;;;;;1.57;1.10;;;10.40;98.20;;;;;;4990985;28;20462;-77
2022/11/07 02:41:31;;;;;;;1.57;1.17;;;10.40;98.20;;;;;;4972376;28;20484;-77
2022/11/07 02:44:02;;;;;;;1.60;1.20;;;10.40;98.20;;;;;;4994418;28;20959;-77
2022/11/07 02:46:31;;;;;;;1.50;1.10;;;10.40;98.20;;;;;;4972494;28;20905;-77
2022/11/07 02:49:00;;;;;;;1.60;1.10;;;10.40;98.20;;;;;;5000830;28;20472;-77
2022/11/07 02:51:27;;;;;;;1.57;1.07;;;10.40;98.20;;;;;;4982887;28;20568;-77
2022/11/07 02:53:55;;;;;;;1.60;1.10;;;10.30;98.20;;;;;;4994855;28;20791;-77
2022/11/07 02:56:22;;;;;;;1.57;1.10;;;10.30;98.20;;;;;;4970656;28;20491;-77
2022/11/07 02:58:52;;;;;;;1.60;1.10;;;10.30;98.20;;;;;;4999204;28;20469;-77
2022/11/07 03:01:19;;;;;;;1.60;1.10;;;10.30;98.20;;;;;;4983908;28;20485;-77
2022/11/07 03:03:48;;;;;;;1.60;1.10;;;10.30;98.20;;;;;;4996889;28;20462;-77
2022/11/07 03:06:18;;;;;;;1.60;1.20;;;10.30;98.20;;;;;;4968312;28;20492;-77
2022/11/07 03:08:45;;;;;;;1.60;1.20;;;10.30;98.20;;;;;;5001425;28;20468;-77
2022/11/07 03:11:13;;;;;;;1.60;1.20;;;10.30;98.20;;;;;;4966264;28;21181;-77
2022/11/07 03:13:40;;;;;;;1.57;1.10;;;10.30;98.20;;;;;;5002272;28;20976;-77
2022/11/07 03:16:10;;;;;;;1.60;1.10;;;10.30;98.20;;;;;;4980540;28;20876;-78
2022/11/07 03:18:38;;;;;;;1.57;1.10;;;10.30;98.20;;;;;;4989263;28;20838;-77
2022/11/07 03:21:05;;;;;;;1.60;1.20;;;10.20;98.20;;;;;;4981577;28;20508;-78
2022/11/07 03:23:33;;;;;;;1.60;1.10;;;10.20;98.20;;;;;;5003524;28;20457;-77
2022/11/07 03:26:00;;;;;;;1.60;1.20;;;10.20;98.20;;;;;;4966500;28;20819;-77
2022/11/07 03:28:27;;;;;;;1.57;1.10;;;10.20;98.20;;;;;;4998711;28;20458;-77
2022/11/07 03:30:54;;;;;;;1.50;1.10;;;10.20;98.20;;;;;;4962846;28;20486;-78
2022/11/07 03:33:22;;;;;;;1.60;1.20;;;10.20;98.20;;;;;;4987600;28;20553;-77
2022/11/07 03:35:48;;;;;;;1.60;1.20;;;10.20;98.20;;;;;;4961326;28;20620;-77
2022/11/07 03:38:16;;;;;;;1.57;1.10;;;10.20;98.20;;;;;;5006140;28;20453;-77
2022/11/07 03:40:45;;;;;;;1.53;1.10;;;10.20;98.20;;;;;;4991355;28;21055;-77
2022/11/07 03:43:12;;;;;;;1.60;1.10;;;10.20;98.20;;;;;;4977131;28;20496;-77
2022/11/07 03:45:39;;;;;;;1.60;1.20;;;10.20;98.20;;;;;;4988451;28;20464;-78
2022/11/07 03:48:06;;;;;;;1.60;1.20;;;10.20;98.20;;;;;;4994086;28;20863;-78
2022/11/07 03:50:34;;;;;;;1.60;1.20;;;10.20;98.20;;;;;;4979194;28;20764;-77
2022/11/07 03:53:01;;;;;;;1.53;1.10;;;10.10;98.20;;;;;;4975202;28;20484;-78
2022/11/07 03:55:28;;;;;;;1.60;1.13;;;10.10;98.20;;;;;;4990121;28;20499;-77
2022/11/07 03:57:55;;;;;;;1.60;1.10;;;10.10;98.20;;;;;;4977697;28;20496;-77
2022/11/07 04:00:22;;;;;;;1.57;1.10;;;10.10;98.20;;;;;;4989926;28;20484;-77
2022/11/07 04:02:49;;;;;;;1.60;1.20;;;10.10;98.20;;;;;;4978848;28;20480;-78
2022/11/07 04:05:16;;;;;;;1.50;1.10;;;10.10;98.20;;;;;;4979903;28;20471;-78
2022/11/07 04:07:44;;;;;;;1.53;1.20;;;10.10;98.20;;;;;;4985367;28;20882;-78
2022/11/07 04:10:11;;;;;;;1.53;1.10;;;10.10;98.20;;;;;;4984623;28;20850;-77
2022/11/07 04:18:06;;;;;;;1.60;1.10;;;10.10;98.20;;;;;;4979122;28;20536;-77
2022/11/07 04:20:32;;;;;;;1.53;1.10;;;10.10;98.20;;;;;;4989759;28;20493;-77
2022/11/07 04:23:01;;;;;;;1.60;1.20;;;10.10;98.20;;;;;;4978052;28;20485;-77
2022/11/07 04:28:14;;;;;;;1.60;1.10;;;10.10;98.20;;;;;;4978406;28;21130;-78
2022/11/07 04:30:41;;;;;;;1.53;1.10;;;10.10;98.20;;;;;;4974070;28;20486;-78
2022/11/07 04:33:08;;;;;;;1.60;1.20;;;10.10;98.20;;;;;;4990366;28;20984;-78
2022/11/07 04:35:35;;;;;;;1.60;1.10;;;10.10;98.20;;;;;;4970450;28;20486;-78
2022/11/07 04:38:03;;;;;;;1.60;1.10;;;10.10;98.20;;;;;;4979328;28;20538;-77
2022/11/07 04:40:30;;;;;;;1.53;1.10;;;10.10;98.20;;;;;;4970518;28;20494;-77
2022/11/07 04:42:57;;;;;;;1.53;1.17;;;10.00;98.20;;;;;;4991701;28;20480;-77
2022/11/07 04:45:23;;;;;;;1.60;1.20;;;10.00;98.20;;;;;;4981833;28;20489;-77
2022/11/07 04:47:50;;;;;;;1.60;1.20;;;10.00;98.20;;;;;;4992616;28;20480;-78
2022/11/07 04:50:19;;;;;;;1.57;1.13;;;10.00;98.20;;;;;;4989376;28;20504;-77
2022/11/07 04:52:46;;;;;;;1.60;1.20;;;10.00;98.20;;;;;;4993578;28;20491;-77
2022/11/07 04:55:21;;;;;;;1.60;1.10;;;9.90;98.20;;;;;;4984196;28;20499;-77
2022/11/07 04:57:48;;;;;;;1.57;1.20;;;9.90;98.20;;;;;;4991561;28;20492;-77
2022/11/07 05:00:16;;;;;;;1.60;1.20;;;10.00;98.20;;;;;;4987632;28;20492;-77
2022/11/07 05:02:42;;;;;;;1.60;1.20;;;10.00;98.20;;;;;;4977526;28;21053;-77
2022/11/07 05:05:10;;;;;;;1.53;1.20;;;10.00;98.20;;;;;;4988021;28;20467;-78
2022/11/07 05:07:37;;;;;;;1.60;1.10;;;10.00;98.20;;;;;;4992847;28;20484;-77
2022/11/07 05:10:04;;;;;;;1.60;1.10;;;10.00;98.20;;;;;;4978761;28;20505;-77
2022/11/07 05:12:33;;;;;;;1.53;1.17;;;10.00;98.20;;;;;;4972110;28;20493;-78
2022/11/07 05:14:59;;;;;;;1.60;1.20;;;9.90;98.20;;;;;;4955122;28;20486;-77
2022/11/07 05:17:26;;;;;;;1.57;1.17;;;9.90;98.20;;;;;;4970568;28;20559;-78
2022/11/07 05:19:53;;;;;;;1.60;1.13;;;9.90;98.20;;;;;;4971567;28;20489;-77
2022/11/07 05:25:04;;;;;;;1.60;1.30;;;9.90;98.20;;;;;;4984828;28;21152;-77
2022/11/07 05:27:33;;;;;;;1.60;1.20;;;9.90;98.20;;;;;;4991101;28;20488;-77
2022/11/07 05:29:59;;;;;;;1.53;1.10;;;9.90;98.20;;;;;;4989367;28;20566;-77
2022/11/07 05:32:26;;;;;;;1.53;1.10;;;9.90;98.20;;;;;;4984732;28;20908;-77
2022/11/07 05:34:53;;;;;;;1.60;1.17;;;9.90;98.20;;;;;;4993720;28;20866;-76
2022/11/07 05:37:20;;;;;;;1.57;1.17;;;9.90;98.20;;;;;;4991064;28;20859;-77
2022/11/07 05:39:47;;;;;;;1.60;1.20;;;9.90;98.20;;;;;;4994862;28;20492;-76
2022/11/07 05:42:13;;;;;;;1.60;1.20;;;9.90;98.20;;;;;;4983344;28;20492;-76
2022/11/07 05:44:41;;;;;;;1.57;1.10;;;9.90;98.20;;;;;;4987258;28;20790;-76
2022/11/07 05:47:08;;;;;;;1.60;1.10;;;9.90;98.20;;;;;;4973348;28;20477;-75
2022/11/07 05:49:35;;;;;;;1.60;1.13;;;9.90;98.20;;;;;;4989698;28;20584;-76
2022/11/07 05:52:02;;;;;;;1.60;1.20;;;10.00;98.20;;;;;;4985916;28;20490;-76
2022/11/07 05:54:29;;;;;;;1.60;1.20;;;10.00;98.20;;;;;;4989760;28;20461;-76
2022/11/07 05:56:57;;;;;;;1.57;1.10;;;10.00;98.20;;;;;;4980247;28;20493;-76
2022/11/07 05:59:24;;;;;;;1.60;1.27;;;10.10;98.20;;;;;;4987578;28;20626;-76
2022/11/07 06:01:53;;;;;;;1.60;1.20;;;10.10;98.20;;;;;;4977205;28;20481;-76
2022/11/07 06:04:20;;;;;;;1.57;1.17;;;10.10;98.20;;;;;;4988102;28;20863;-76
2022/11/07 06:06:46;;;;;;;1.60;1.10;;;10.20;98.20;;;;;;4984111;28;20494;-76
2022/11/07 06:09:13;;;;;;;1.60;1.17;;;10.20;98.20;;;;;;4996938;28;20485;-76
2022/11/07 06:11:40;;;;;;;1.60;1.30;;;10.30;98.20;;;;;;4980073;28;20493;-77
2022/11/07 06:14:07;;;;;;;1.53;1.10;;;10.30;98.20;;;;;;4987638;28;20472;-76
2022/11/07 06:16:34;;;;;;;1.50;1.10;;;10.40;98.20;;;;;;4984517;28;20578;-76
2022/11/07 06:19:02;;;;;;;1.60;1.20;;;10.40;98.20;;;;;;5000874;28;20488;-77
2022/11/07 06:21:30;;;;;;;1.53;1.10;;;10.40;98.20;;;;;;4983743;28;20940;-77
2022/11/07 06:23:57;;;;;;;1.60;1.17;;;10.40;98.20;;;;;;5001816;28;20953;-76
2022/11/07 06:26:25;;;;;;;1.60;1.13;;;10.50;98.20;;;;;;4975783;28;20579;-76
2022/11/07 06:28:52;;;;;;;1.53;1.10;;;10.50;98.20;;;;;;4991062;28;20552;-77
2022/11/07 06:31:19;;;;;;;1.60;1.10;;;10.50;98.20;;;;;;4983104;28;20485;-77
2022/11/07 06:33:45;;;;;;;1.60;1.13;;;10.50;98.20;;;;;;5002934;28;20726;-77
2022/11/07 06:36:14;;;;;;;1.50;1.20;;;10.60;98.20;;;;;;4980448;28;21909;-77
2022/11/07 06:38:40;;;;;;;1.50;1.10;;;10.60;98.20;;;;;;4992231;28;20957;-77
2022/11/07 06:41:09;;;;;;;1.60;1.10;;;10.70;98.20;;;;;;4980300;28;20490;-77
2022/11/07 06:43:36;;;;;;;1.57;1.10;;;10.70;98.20;;;;;;4999289;28;20469;-77
2022/11/07 06:46:05;;;;;;;1.60;1.10;;;10.70;98.20;;;;;;4981097;28;20461;-77
2022/11/07 06:48:32;;;;;;;1.60;1.33;;;10.80;98.20;;;;;;4998328;28;21071;-77
2022/11/07 06:51:00;;;;;;;1.60;1.20;;;10.80;98.20;;;;;;4982868;28;20568;-77
2022/11/07 06:53:29;;;;;;;1.57;1.10;;;10.80;98.20;;;;;;5004319;28;20471;-77
2022/11/07 06:55:59;;;;;;;1.60;1.20;;;10.80;98.20;;;;;;4982744;28;20555;-76
2022/11/07 06:58:25;;;;;;;1.60;1.20;;;10.90;98.20;;;;;;5002793;28;20878;-78
2022/11/07 07:00:52;;;;;;;1.60;1.10;;;10.90;98.20;;;;;;4980005;28;20856;-77
2022/11/07 07:03:19;;;;;;;1.60;1.20;;;10.90;98.20;;;;;;4986308;28;20461;-76
2022/11/07 07:05:46;;;;;;;1.60;1.00;;;11.00;98.20;;;;;;4991379;28;20493;-79
2022/11/07 07:08:13;;;;;;;1.57;1.07;;;11.00;98.20;;;;;;4983620;28;20574;-77
2022/11/07 07:10:44;;;;;;;1.57;1.20;;;11.00;98.20;;;;;;4990804;28;20937;-77
2022/11/07 07:13:12;;;;;;;1.57;1.10;;;11.10;98.20;;;;;;4997812;28;20486;-77
2022/11/07 07:15:39;;;;;;;1.60;1.10;;;11.10;98.20;;;;;;4989983;28;20477;-78
2022/11/07 07:18:06;;;;;;;1.60;1.20;;;11.20;98.20;;;;;;4978061;28;20483;-78
2022/11/07 07:20:33;;;;;;;1.57;1.20;;;11.20;98.20;;;;;;4989487;28;20548;-77
2022/11/07 07:23:00;;;;;;;1.60;1.10;;;11.20;98.20;;;;;;4995496;28;20490;-78
2022/11/07 07:25:27;;;;;;;1.57;1.10;;;11.30;98.20;;;;;;4987638;28;20467;-78
2022/11/07 07:27:55;;;;;;;1.57;1.10;;;11.30;98.20;;;;;;4992977;28;20933;-78
2022/11/07 07:30:22;;;;;;;1.53;1.10;;;11.40;98.20;;;;;;4990398;28;20495;-78
2022/11/07 07:32:49;;;;;;;1.53;1.00;;;11.40;98.20;;;;;;4995000;28;20577;-78
2022/11/07 07:35:16;;;;;;;1.57;1.10;;;11.50;98.20;;;;;;4988631;28;20571;-77
2022/11/07 07:37:43;;;;;;;1.60;1.10;;;11.50;98.20;;;;;;4984938;28;20564;-78
2022/11/07 07:40:11;;;;;;;1.57;1.10;;;11.60;98.20;;;;;;4990691;28;20489;-77
2022/11/07 07:42:41;;;;;;;1.57;1.07;;;11.70;98.20;;;;;;4992491;28;20554;-77
2022/11/07 07:45:11;;;;;;;1.57;1.07;;;11.80;98.20;;;;;;4992016;28;20519;-77
2022/11/07 07:47:38;;;;;;;1.53;1.10;;;11.90;98.20;;;;;;4979313;28;20496;-77
2022/11/07 07:50:06;;;;;;;1.60;1.10;;;12.00;98.20;;;;;;4989428;28;20489;-77
2022/11/07 07:52:32;;;;;;;1.57;1.10;;;12.00;98.20;;;;;;4982501;28;20484;-79
2022/11/07 07:54:59;;;;;;;1.57;1.10;;;12.10;98.20;;;;;;4997993;28;20465;-79
2022/11/07 07:57:26;;;;;;;1.53;1.00;;;12.20;98.20;;;;;;5000230;28;20540;-79
2022/11/07 07:59:53;;;;;;;1.50;1.07;;;12.30;98.20;;;;;;4998770;28;20548;-79
2022/11/07 08:02:21;;;;;;;1.57;1.00;;;12.40;98.20;;;;;;4989206;28;20915;-77
2022/11/07 08:04:48;;;;;;;1.60;1.10;;;12.50;98.20;;;;;;4990522;28;20598;-77
2022/11/07 08:07:15;;;;;;;1.57;1.00;;;12.60;98.20;;;;;;4993698;28;20863;-79
2022/11/07 08:09:41;;;;;;;1.50;1.00;;;12.70;98.20;;;;;;4995489;28;20492;-79
2022/11/07 08:12:08;;;;;;;1.57;1.10;;;12.80;98.20;;;;;;4991776;28;20499;-78
2022/11/07 08:14:35;;;;;;;1.53;1.07;;;12.80;98.20;;;;;;4996086;28;20461;-79
2022/11/07 08:17:02;;;;;;;1.60;1.10;;;12.90;98.20;;;;;;4987436;28;20675;-77
2022/11/07 08:19:30;;;;;;;1.60;1.10;;;13.00;98.20;;;;;;4994125;28;20554;-76
2022/11/07 08:21:57;;;;;;;1.60;1.10;;;13.00;98.20;;;;;;4989211;28;20491;-76
2022/11/07 08:24:24;;;;;;;1.57;1.10;;;13.10;98.20;;;;;;4994609;28;20630;-76
2022/11/07 08:26:51;;;;;;;1.60;1.10;;;13.10;98.20;;;;;;4978225;28;20484;-75
2022/11/07 08:29:18;;;;;;;1.60;1.10;;;13.10;98.20;;;;;;4988326;28;21045;-77
2022/11/07 08:31:45;;;;;;;1.60;1.10;;;13.10;98.20;;;;;;4985846;28;20476;-76
2022/11/07 08:34:11;;;;;;;1.57;1.00;;;13.20;98.20;;;;;;4995821;28;20465;-76
2022/11/07 08:36:40;;;;;;;1.53;1.00;;;13.20;98.20;;;;;;4984759;28;20965;-76
2022/11/07 08:39:06;;;;;;;1.53;1.00;;;13.20;98.20;;;;;;4994548;28;21061;-75
2022/11/07 08:41:33;;;;;;;1.57;1.00;;;13.20;98.20;;;;;;4989708;28;20931;-77
2022/11/07 08:44:00;;;;;;;1.60;1.00;;;13.30;98.20;;;;;;5005818;28;20464;-77
2022/11/07 08:46:27;;;;;;;1.53;1.03;;;13.30;98.20;;;;;;4986017;28;20479;-79
2022/11/07 08:48:54;;;;;;;1.60;1.10;;;13.30;98.20;;;;;;5000307;28;20475;-78
2022/11/07 08:51:20;;;;;;;1.57;1.00;;;13.30;98.20;;;;;;4982464;28;20484;-78
2022/11/07 08:53:49;;;;;;;1.57;1.00;;;13.30;98.20;;;;;;5002133;28;20946;-78
2022/11/07 08:56:15;;;;;;;1.57;1.03;;;13.30;98.20;;;;;;4983736;28;20487;-79
2022/11/07 08:58:43;;;;;;;1.60;1.00;;;13.40;98.20;;;;;;5002953;28;20468;-77
2022/11/07 09:01:10;;;;;;;1.53;1.00;;;13.40;98.20;;;;;;4984338;28;20496;-78
2022/11/07 09:03:38;;;;;;;1.60;1.00;;;13.40;98.20;;;;;;4999949;28;20469;-78
2022/11/07 09:06:06;;;;;;;1.53;1.00;;;13.50;98.20;;;;;;4981673;28;20624;-78
2022/11/07 09:08:33;;;;;;;1.53;1.00;;;13.50;98.20;;;;;;5017327;28;20969;-78
2022/11/07 09:11:04;;;;;;;1.60;1.10;;;13.50;98.20;;;;;;4983375;28;20485;-78
2022/11/07 09:13:33;;;;;;;1.53;1.00;;;13.60;98.20;;;;;;5003617;28;20496;-78
2022/11/07 09:16:02;;;;;;;1.60;1.10;;;13.60;98.20;;;;;;4982563;28;20490;-78
2022/11/07 09:18:29;;;;;;;1.57;1.00;;;13.70;98.20;;;;;;5009305;28;20467;-78
2022/11/07 09:20:57;;;;;;;1.60;1.10;;;13.70;98.20;;;;;;4981363;28;20483;-78
2022/11/07 09:23:24;;;;;;;6.10;5.70;;;13.70;98.20;;;;;;5006194;28;20471;-79
2022/11/07 09:25:51;;;;;;;1.57;1.00;;;13.80;98.20;;;;;;4981387;28;20457;-83
2022/11/07 09:31:18;;;;;;;1.50;1.00;;;13.70;98.20;;;;;;4988356;28;20471;-84
2022/11/07 09:33:45;;;;;;;1.57;1.00;;;13.70;98.20;;;;;;5012392;28;20475;-82
2022/11/07 09:36:12;;;;;;;1.53;1.00;;;13.60;98.20;;;;;;4990477;28;20481;-82
2022/11/07 09:39:14;;;;;;;1.60;1.10;;;13.50;98.20;;;;;;5011598;28;21134;-83
2022/11/07 09:41:53;;;;;;;1.53;1.00;;;13.50;98.20;;;;;;4969226;28;20861;-83
2022/11/07 09:44:40;;;;;;;1.53;1.00;;;13.50;98.20;;;;;;4993082;28;20472;-82
2022/11/07 09:47:18;;;;;;;1.57;1.00;;;13.40;98.20;;;;;;4981096;28;20488;-81
2022/11/07 09:49:47;;;;;;;1.53;0.90;;;13.40;98.20;;;;;;4997350;28;20488;-79
2022/11/07 09:52:19;;;;;;;1.53;1.10;;;13.40;98.20;;;;;;4985083;28;20983;-79
2022/11/07 09:54:51;;;;;;;1.60;1.10;;;13.40;98.20;;;;;;4993466;28;20837;-79
2022/11/07 09:57:19;;;;;;;1.57;1.00;;;13.40;98.20;;;;;;4997108;28;20485;-79
2022/11/07 09:59:53;;;;;;;1.60;1.10;;;13.40;98.20;;;;;;4994104;28;20509;-79
2022/11/07 10:02:23;;;;;;;1.60;1.10;;;13.50;98.20;;;;;;4982882;28;20858;-79
2022/11/07 10:04:56;;;;;;;1.60;1.10;;;13.50;98.20;;;;;;4993828;28;20457;-79
2022/11/07 10:07:33;;;;;;;1.57;1.00;;;13.50;98.20;;;;;;4980992;28;20496;-79
2022/11/07 10:10:06;;;;;;;1.53;1.00;;;13.40;98.20;;;;;;4990721;28;20480;-78
2022/11/07 10:13:05;;;;;;;1.57;0.93;;;13.50;98.20;;;;;;4979353;28;20493;-78
2022/11/07 10:15:45;;;;;;;1.60;1.00;;;13.50;98.20;;;;;;4987330;28;20553;-77
2022/11/07 10:18:20;;;;;;;1.60;1.10;;;13.60;98.20;;;;;;4960633;28;20851;-77
2022/11/07 10:20:55;;;;;;;1.50;0.93;;;13.60;98.20;;;;;;4969505;28;20777;-77
2022/11/07 10:23:45;;;;;;;1.50;0.90;;;13.70;98.20;;;;;;4980323;28;20555;-77
2022/11/07 10:26:14;;;;;;;1.60;1.00;;;13.70;98.20;;;;;;4983954;28;20476;-76
2022/11/07 10:28:45;;;;;;;1.53;1.00;;;13.80;98.20;;;;;;5005715;28;20472;-77
2022/11/07 10:31:15;;;;;;;1.60;1.10;;;13.80;98.20;;;;;;4980480;28;20558;-77
2022/11/07 10:33:48;;;;;;;1.57;1.00;;;13.90;98.20;;;;;;4999939;28;20985;-76
2022/11/07 10:36:22;;;;;;;1.57;1.00;;;13.90;98.20;;;;;;4983419;28;20484;-77
2022/11/07 10:38:49;;;;;;;1.53;0.90;;;13.90;98.20;;;;;;4998707;28;20561;-76
2022/11/07 10:41:17;;;;;;;1.53;1.00;;;14.00;98.20;;;;;;4980652;28;20558;-76
2022/11/07 10:43:48;;;;;;;1.53;1.00;;;14.00;98.20;;;;;;4999150;28;20472;-76
2022/11/07 10:46:20;;;;;;;1.53;1.00;;;14.10;98.20;;;;;;4984768;28;20479;-76
2022/11/07 10:48:55;;;;;;;1.57;1.00;;;14.20;98.20;;;;;;5001489;28;20484;-76
2022/11/07 10:51:32;;;;;;;1.53;1.00;;;14.30;98.20;;;;;;4983676;28;20475;-76
2022/11/07 10:53:59;;;;;;;1.53;1.00;;;14.40;98.20;;;;;;4995270;28;20472;-76
2022/11/07 10:56:26;;;;;;;1.50;0.93;;;14.50;98.20;;;;;;4984590;28;21016;-76
2022/11/07 10:58:53;;;;;;;1.53;1.00;;;14.60;98.20;;;;;;5000357;28;20555;-76
2022/11/07 11:01:26;;;;;;;1.53;1.00;;;14.70;98.20;;;;;;4982789;28;20480;-76
2022/11/07 11:03:53;;;;;;;1.60;1.10;;;14.80;98.20;;;;;;5002897;28;20472;-76
2022/11/07 11:06:29;;;;;;;1.57;0.90;;;14.90;98.20;;;;;;4976942;28;21012;-77
2022/11/07 11:08:57;;;;;;;1.60;1.00;;;14.90;98.20;;;;;;4990522;28;20500;-77
2022/11/07 11:11:31;;;;;;;1.57;1.00;;;14.90;98.20;;;;;;4984660;28;21012;-78
2022/11/07 11:14:03;;;;;;;1.53;0.97;;;14.90;98.20;;;;;;5001446;28;20552;-76
2022/11/07 11:16:38;;;;;;;1.57;1.00;;;15.00;98.20;;;;;;4979528;28;20491;-78
2022/11/07 11:19:06;;;;;;;1.57;1.00;;;15.10;98.20;;;;;;4986624;28;21095;-77
2022/11/07 11:21:42;;;;;;;1.60;1.00;;;15.20;98.20;;;;;;4984253;28;20478;-77
2022/11/07 11:24:18;;;;;;;1.57;1.00;;;15.30;98.20;;;;;;4997267;28;20936;-76
2022/11/07 11:26:47;;;;;;;1.60;1.00;;;15.50;98.20;;;;;;4985692;28;20546;-76
2022/11/07 11:29:23;;;;;;;1.60;1.00;;;15.60;98.20;;;;;;4994205;28;20491;-76
2022/11/07 11:31:52;;;;;;;1.60;1.10;;;15.60;98.20;;;;;;4985013;28;20897;-76
2022/11/07 11:34:27;;;;;;;1.57;1.00;;;15.60;98.20;;;;;;4994002;28;20822;-77
2022/11/07 11:37:01;;;;;;;1.60;1.00;;;15.80;98.20;;;;;;4987136;28;20883;-77
2022/11/07 11:39:36;;;;;;;1.60;1.00;;;15.90;98.20;;;;;;4992494;28;20480;-76
2022/11/07 11:42:04;;;;;;;1.60;1.00;;;16.00;98.20;;;;;;4978889;28;20477;-77
2022/11/07 11:44:37;;;;;;;1.57;0.90;;;16.10;98.20;;;;;;4986458;28;20456;-77
2022/11/07 11:47:14;;;;;;;1.50;1.00;;;16.20;98.20;;;;;;4981608;28;20484;-77
2022/11/07 11:49:46;;;;;;;1.53;1.00;;;16.20;98.20;;;;;;4988206;28;20483;-76
2022/11/07 11:52:16;;;;;;;1.57;0.90;;;16.20;98.20;;;;;;4989127;28;20487;-76
2022/11/07 11:54:43;;;;;;;1.60;0.90;;;16.20;98.20;;;;;;4988299;28;20551;-76
2022/11/07 11:57:15;;;;;;;1.60;1.20;;;16.10;98.20;;;;;;4975037;28;20485;-76
2022/11/07 12:00:03;;;;;;;1.50;0.90;;;16.10;98.20;;;;;;4983761;28;20481;-76
2022/11/07 12:02:48;;;;;;;1.60;1.00;;;16.10;98.20;;;;;;4976273;28;20552;-76
2022/11/07 12:05:26;;;;;;;1.60;1.00;;;16.10;98.20;;;;;;4988374;28;20491;-76
2022/11/07 12:08:06;;;;;;;1.57;1.00;;;16.10;98.20;;;;;;4981853;28;20904;-76
2022/11/07 12:10:39;;;;;;;1.60;1.10;;;16.10;98.20;;;;;;4988767;28;20499;-76
2022/11/07 12:13:17;;;;;;;1.60;1.00;;;16.10;98.20;;;;;;4992328;28;21030;-76
2022/11/07 12:15:57;;;;;;;1.50;1.00;;;16.20;98.20;;;;;;4986799;28;20831;-77
2022/11/07 12:18:35;;;;;;;1.53;1.00;;;16.20;98.20;;;;;;4975487;28;20485;-76
2022/11/07 12:21:12;;;;;;;1.60;1.00;;;16.30;98.20;;;;;;4977271;28;20748;-77
2022/11/07 12:23:51;;;;;;;1.53;1.00;;;16.30;98.20;;;;;;4998685;28;20599;-77
2022/11/07 12:26:24;;;;;;;1.60;1.10;;;16.30;98.20;;;;;;4981405;28;20472;-76
2022/11/07 12:29:00;;;;;;;1.60;1.00;;;16.40;98.20;;;;;;4998471;28;20460;-76
2022/11/07 12:31:40;;;;;;;1.50;0.90;;;16.50;98.20;;;;;;4974629;28;20558;-76
2022/11/07 12:34:20;;;;;;;1.53;0.90;;;16.60;98.20;;;;;;4989095;28;20473;-76
2022/11/07 12:37:00;;;;;;;1.50;1.00;;;16.70;98.20;;;;;;4974975;28;20520;-77
2022/11/07 12:39:43;;;;;;;1.57;1.00;;;16.70;98.20;;;;;;4984501;28;20847;-76
2022/11/07 12:42:26;;;;;;;1.60;1.00;;;16.70;98.20;;;;;;4977585;28;20476;-76
2022/11/07 12:45:11;;;;;;;2.60;2.20;;;16.70;98.20;;;;;;4993272;28;20476;-76
2022/11/07 12:48:04;;;;;;;1.53;1.00;;;16.70;98.20;;;;;;4975633;28;20508;-76
2022/11/07 12:50:41;;;;;;;1.60;1.00;;;16.80;98.20;;;;;;4967725;28;20481;-75
2022/11/07 12:53:18;;;;;;;1.60;1.00;;;16.80;98.20;;;;;;4992328;28;20505;-76
2022/11/07 12:55:50;;;;;;;1.57;1.00;;;16.80;98.20;;;;;;4991400;28;20467;-76
2022/11/07 12:58:21;;;;;;;1.57;1.00;;;16.90;98.20;;;;;;4977568;28;20491;-75
2022/11/07 13:00:50;;;;;;;1.53;1.00;;;16.90;98.20;;;;;;4983802;28;20502;-75
2022/11/07 13:03:27;;;;;;;1.50;0.93;;;16.90;98.20;;;;;;5002199;28;20481;-75
2022/11/07 13:06:06;;;;;;;1.50;0.90;;;16.90;98.20;;;;;;4981254;28;20468;-75
2022/11/07 13:08:39;;;;;;;1.53;0.93;;;16.90;98.20;;;;;;5002125;28;20826;-75
2022/11/07 13:11:16;;;;;;;1.57;1.00;;;16.80;98.20;;;;;;4981951;28;20876;-75
2022/11/07 13:13:54;;;;;;;1.53;0.90;;;16.80;98.20;;;;;;4999182;28;20460;-75
2022/11/07 13:16:24;;;;;;;1.53;0.90;;;16.70;98.20;;;;;;4981299;28;20468;-74